createdAt,value
2018-03-18T00:02:22.196Z,-1.10
2018-03-18T00:04:52.528Z,-1.20
2018-03-18T00:07:20.208Z,-1.20
2018-03-18T00:09:49.428Z,-1.20
2018-03-18T00:12:17.132Z,-1.30
2018-03-18T00:14:45.030Z,-1.20
2018-03-18T00:17:12.825Z,-1.20
2018-03-18T00:19:41.009Z,-1.20
2018-03-18T00:22:08.772Z,-1.20
2018-03-18T00:24:37.206Z,-1.30
2018-03-18T00:27:05.910Z,-1.30
2018-03-18T00:29:33.841Z,-1.20
2018-03-18T00:32:02.568Z,-1.20
2018-03-18T00:34:30.391Z,-1.20
2018-03-18T00:36:58.097Z,-1.20
2018-03-18T00:39:25.867Z,-1.30
2018-03-18T00:41:54.511Z,-1.30
2018-03-18T00:44:23.048Z,-1.30
2018-03-18T00:46:51.655Z,-1.30
2018-03-18T00:49:19.347Z,-1.30
2018-03-18T00:51:58.828Z,-1.30
2018-03-18T00:54:26.596Z,-1.30
2018-03-18T00:56:54.436Z,-1.30
2018-03-18T00:59:22.890Z,-1.30
2018-03-18T01:01:50.660Z,-1.30
2018-03-18T01:04:18.313Z,-1.30
2018-03-18T01:06:45.960Z,-1.30
2018-03-18T01:09:13.619Z,-1.30
2018-03-18T01:11:42.522Z,-1.30
2018-03-18T01:14:11.205Z,-1.30
2018-03-18T01:16:39.659Z,-1.40
2018-03-18T01:19:08.106Z,-1.40
2018-03-18T01:21:35.794Z,-1.40
2018-03-18T01:24:03.453Z,-1.40
2018-03-18T01:26:31.107Z,-1.30
2018-03-18T01:28:58.784Z,-1.30
2018-03-18T01:31:26.439Z,-1.30
2018-03-18T01:33:54.228Z,-1.30
2018-03-18T01:36:22.124Z,-1.30
2018-03-18T01:38:49.760Z,-1.30
2018-03-18T01:41:17.412Z,-1.30
2018-03-18T01:43:45.102Z,-1.30
2018-03-18T01:46:13.520Z,-1.30
2018-03-18T01:48:41.477Z,-1.30
2018-03-18T01:51:09.155Z,-1.20
2018-03-18T01:53:37.827Z,-1.30
2018-03-18T01:56:05.465Z,-1.30
2018-03-18T01:58:33.881Z,-1.40
2018-03-18T02:01:01.519Z,-1.40
2018-03-18T02:03:29.903Z,-1.30
2018-03-18T02:05:57.527Z,-1.30
2018-03-18T02:08:25.206Z,-1.30
2018-03-18T02:10:52.843Z,-1.30
2018-03-18T02:13:22.315Z,-1.30
2018-03-18T02:15:49.970Z,-1.30
2018-03-18T02:18:17.606Z,-1.30
2018-03-18T02:20:46.018Z,-1.30
2018-03-18T02:23:13.862Z,-1.40
2018-03-18T02:25:41.586Z,-1.30
2018-03-18T02:28:10.147Z,-1.30
2018-03-18T02:30:37.805Z,-1.30
2018-03-18T02:33:05.790Z,-1.40
2018-03-18T02:35:33.600Z,-1.40
2018-03-18T02:38:01.253Z,-1.30
2018-03-18T02:40:29.021Z,-1.30
2018-03-18T02:42:56.655Z,-1.30
2018-03-18T02:45:24.349Z,-1.30
2018-03-18T02:47:52.000Z,-1.40
2018-03-18T02:50:19.693Z,-1.40
2018-03-18T02:52:47.351Z,-1.40
2018-03-18T02:55:15.200Z,-1.40
2018-03-18T02:57:43.926Z,-1.40
2018-03-18T03:00:11.592Z,-1.40
2018-03-18T03:02:39.993Z,-1.30
2018-03-18T03:05:08.645Z,-1.40
2018-03-18T03:07:36.274Z,-1.40
2018-03-18T03:10:03.925Z,-1.40
2018-03-18T03:12:32.419Z,-1.30
2018-03-18T03:15:00.100Z,-1.30
2018-03-18T03:17:27.818Z,-1.30
2018-03-18T03:19:55.595Z,-1.30
2018-03-18T03:22:23.325Z,-1.30
2018-03-18T03:24:50.969Z,-1.40
2018-03-18T03:27:18.610Z,-1.40
2018-03-18T03:29:47.052Z,-1.40
2018-03-18T03:32:14.819Z,-1.50
2018-03-18T03:34:42.489Z,-1.50
2018-03-18T03:37:10.230Z,-1.50
2018-03-18T03:39:37.914Z,-1.50
2018-03-18T03:42:08.204Z,-1.50
2018-03-18T03:44:36.580Z,-1.50
2018-03-18T03:47:06.479Z,-1.50
2018-03-18T03:49:34.971Z,-1.50
2018-03-18T03:52:02.593Z,-1.50
2018-03-18T03:54:30.203Z,-1.40
2018-03-18T03:56:57.849Z,-1.50
2018-03-18T03:59:25.555Z,-1.50
2018-03-18T04:01:53.238Z,-1.50
2018-03-18T04:04:20.814Z,-1.50
2018-03-18T04:06:48.396Z,-1.50
2018-03-18T04:09:16.086Z,-1.50
2018-03-18T04:11:43.768Z,-1.60
2018-03-18T04:14:11.398Z,-1.60
2018-03-18T04:16:39.006Z,-1.60
2018-03-18T04:19:07.362Z,-1.60
2018-03-18T04:21:37.107Z,-1.60
2018-03-18T04:24:04.861Z,-1.70
2018-03-18T04:26:32.861Z,-1.70
2018-03-18T04:29:01.013Z,-1.70
2018-03-18T04:31:29.679Z,-1.70
2018-03-18T04:33:57.327Z,-1.70
2018-03-18T04:36:24.947Z,-1.80
2018-03-18T04:38:52.569Z,-1.70
2018-03-18T04:41:20.245Z,-1.70
2018-03-18T04:43:47.878Z,-1.70
2018-03-18T04:46:15.514Z,-1.70
2018-03-18T04:48:43.952Z,-1.80
2018-03-18T04:51:11.544Z,-1.80
2018-03-18T04:53:39.166Z,-1.80
2018-03-18T04:56:06.820Z,-1.80
2018-03-18T04:58:34.407Z,-1.90
2018-03-18T05:01:02.047Z,-1.90
2018-03-18T05:03:29.671Z,-1.90
2018-03-18T05:05:57.309Z,-2.00
2018-03-18T05:08:25.192Z,-1.90
2018-03-18T05:10:52.826Z,-2.00
2018-03-18T05:13:20.441Z,-2.10
2018-03-18T05:15:48.088Z,-2.20
2018-03-18T05:18:15.809Z,-2.20
2018-03-18T05:20:43.683Z,-2.30
2018-03-18T05:23:11.273Z,-2.30
2018-03-18T05:25:38.915Z,-2.30
2018-03-18T05:28:07.278Z,-2.30
2018-03-18T05:30:36.038Z,-2.20
2018-03-18T05:33:03.684Z,-2.20
2018-03-18T05:35:31.250Z,-2.30
2018-03-18T05:37:58.886Z,-2.40
2018-03-18T05:40:27.224Z,-2.40
2018-03-18T05:42:54.830Z,-2.40
2018-03-18T05:45:23.173Z,-2.40
2018-03-18T05:47:50.788Z,-2.40
2018-03-18T05:50:19.298Z,-2.30
2018-03-18T05:52:46.879Z,-2.40
2018-03-18T05:55:14.558Z,-2.40
2018-03-18T05:57:42.222Z,-2.40
2018-03-18T06:00:09.925Z,-2.40
2018-03-18T06:02:38.325Z,-2.40
2018-03-18T06:05:05.966Z,-2.40
2018-03-18T06:07:34.395Z,-2.40
2018-03-18T06:10:02.125Z,-2.40
2018-03-18T06:12:30.556Z,-2.30
2018-03-18T06:14:58.130Z,-2.30
2018-03-18T06:17:25.786Z,-2.30
2018-03-18T06:19:53.378Z,-2.30
2018-03-18T06:22:20.997Z,-2.30
2018-03-18T06:24:48.621Z,-2.20
2018-03-18T06:27:16.258Z,-2.20
2018-03-18T06:29:43.904Z,-2.20
2018-03-18T06:32:11.526Z,-2.20
2018-03-18T06:34:39.150Z,-2.10
2018-03-18T06:37:06.774Z,-2.10
2018-03-18T06:39:35.168Z,-2.00
2018-03-18T06:42:02.838Z,-2.00
2018-03-18T06:44:31.611Z,-2.00
2018-03-18T06:46:59.997Z,-1.90
2018-03-18T06:49:28.354Z,-1.90
2018-03-18T06:51:55.941Z,-1.90
2018-03-18T06:54:24.301Z,-1.80
2018-03-18T06:56:51.885Z,-1.80
2018-03-18T06:59:20.245Z,-1.80
2018-03-18T07:01:47.885Z,-1.80
2018-03-18T07:04:15.458Z,-1.70
2018-03-18T07:06:43.097Z,-1.60
2018-03-18T07:09:10.719Z,-1.60
2018-03-18T07:11:38.315Z,-1.70
2018-03-18T07:14:06.663Z,-1.70
2018-03-18T07:16:35.034Z,-1.70
2018-03-18T07:19:03.633Z,-1.70
2018-03-18T07:21:31.239Z,-1.80
2018-03-18T07:23:58.850Z,-1.80
2018-03-18T07:26:26.486Z,-1.70
2018-03-18T07:28:54.124Z,-1.80
2018-03-18T07:31:22.483Z,-1.70
2018-03-18T07:33:50.128Z,-1.70
2018-03-18T07:36:17.715Z,-1.70
2018-03-18T07:38:45.416Z,-1.70
2018-03-18T07:41:13.021Z,-1.60
2018-03-18T07:43:40.674Z,-1.60
2018-03-18T07:46:08.273Z,-1.60
2018-03-18T07:48:35.902Z,-1.60
2018-03-18T07:51:03.524Z,-1.60
2018-03-18T07:53:31.919Z,-1.50
2018-03-18T07:55:59.561Z,-1.60
2018-03-18T07:58:27.184Z,-1.50
2018-03-18T08:00:54.783Z,-1.50
2018-03-18T08:03:22.387Z,-1.50
2018-03-18T08:05:51.672Z,-1.40
2018-03-18T08:08:20.071Z,-1.50
2018-03-18T08:10:47.723Z,-1.50
2018-03-18T08:13:15.407Z,-1.50
2018-03-18T08:15:44.580Z,-1.40
2018-03-18T08:18:12.184Z,-1.40
2018-03-18T08:20:40.345Z,-1.40
2018-03-18T08:23:08.022Z,-1.40
2018-03-18T08:25:35.663Z,-1.40
2018-03-18T08:28:04.154Z,-1.30
2018-03-18T08:30:32.562Z,-1.10
2018-03-18T08:33:00.173Z,-1.20
2018-03-18T08:35:27.816Z,-1.20
2018-03-18T08:37:55.474Z,-1.10
2018-03-18T08:40:23.186Z,-1.00
2018-03-18T08:42:50.836Z,-1.00
2018-03-18T08:45:18.538Z,-1.10
2018-03-18T08:47:46.152Z,-1.20
2018-03-18T08:50:13.875Z,-1.10
2018-03-18T08:52:42.329Z,-1.00
2018-03-18T08:55:10.624Z,-1.00
2018-03-18T08:57:39.045Z,-1.00
2018-03-18T09:00:07.705Z,-1.00
2018-03-18T09:02:36.165Z,-0.90
2018-03-18T09:05:03.854Z,-0.90
2018-03-18T09:07:31.510Z,-0.80
2018-03-18T09:09:59.203Z,-0.80
2018-03-18T09:12:28.468Z,-0.80
2018-03-18T09:14:56.132Z,-1.00
2018-03-18T09:17:23.703Z,-0.90
2018-03-18T09:19:51.551Z,-0.90
2018-03-18T09:22:19.202Z,-1.00
2018-03-18T09:24:46.817Z,-0.90
2018-03-18T09:27:15.206Z,-0.90
2018-03-18T09:29:42.817Z,-0.90
2018-03-18T09:32:10.505Z,-0.70
2018-03-18T09:34:38.254Z,-0.90
2018-03-18T09:37:05.905Z,-0.90
2018-03-18T09:39:34.296Z,-0.80
2018-03-18T09:42:02.068Z,-0.80
2018-03-18T09:44:29.733Z,-0.70
2018-03-18T09:46:57.953Z,-0.60
2018-03-18T09:49:25.642Z,-0.50
2018-03-18T09:51:53.249Z,-0.50
2018-03-18T09:54:21.156Z,-0.50
2018-03-18T09:56:49.757Z,-0.50
2018-03-18T09:59:17.402Z,-0.40
2018-03-18T10:01:45.046Z,-0.50
2018-03-18T10:04:12.634Z,-0.60
2018-03-18T10:06:40.262Z,-0.40
2018-03-18T10:09:07.893Z,-0.20
2018-03-18T10:11:35.564Z,0.00
2018-03-18T10:14:04.190Z,-0.10
2018-03-18T10:16:33.044Z,-0.10
2018-03-18T10:19:01.375Z,-0.20
2018-03-18T10:21:28.967Z,-0.20
2018-03-18T10:23:57.415Z,0.00
2018-03-18T10:26:25.033Z,0.10
2018-03-18T10:28:52.704Z,0.10
2018-03-18T10:31:20.317Z,0.10
2018-03-18T10:33:47.982Z,0.20
2018-03-18T10:36:16.835Z,0.10
2018-03-18T10:38:44.468Z,0.20
2018-03-18T10:41:12.102Z,0.30
2018-03-18T10:43:41.914Z,0.40
2018-03-18T10:46:10.540Z,0.50
2018-03-18T10:48:38.217Z,0.40
2018-03-18T10:51:07.610Z,0.40
2018-03-18T10:53:35.834Z,0.40
2018-03-18T10:56:03.453Z,0.30
2018-03-18T10:58:31.121Z,0.30
2018-03-18T11:01:04.421Z,0.40
2018-03-18T11:03:32.314Z,0.30
2018-03-18T11:06:00.027Z,0.20
2018-03-18T11:08:27.670Z,0.30
2018-03-18T11:10:56.006Z,0.50
2018-03-18T11:13:23.586Z,0.50
2018-03-18T11:15:52.350Z,0.70
2018-03-18T11:18:19.984Z,0.50
2018-03-18T11:20:48.578Z,0.60
2018-03-18T11:23:16.963Z,0.60
2018-03-18T11:25:45.331Z,0.50
2018-03-18T11:28:12.938Z,0.40
2018-03-18T11:30:40.520Z,0.50
2018-03-18T11:33:10.116Z,0.40
2018-03-18T11:35:37.782Z,0.20
2018-03-18T11:38:06.130Z,0.40
2018-03-18T11:40:33.715Z,0.40
2018-03-18T11:43:01.284Z,0.50
2018-03-18T11:45:28.876Z,0.60
2018-03-18T11:47:56.482Z,0.90
2018-03-18T11:50:24.172Z,0.90
2018-03-18T11:52:52.507Z,0.90
2018-03-18T11:55:20.209Z,0.90
2018-03-18T11:57:47.786Z,1.00
2018-03-18T12:00:15.411Z,1.00
2018-03-18T12:02:43.034Z,1.10
2018-03-18T12:05:10.643Z,1.20
2018-03-18T12:07:38.348Z,1.20
2018-03-18T12:10:09.019Z,1.10
2018-03-18T12:12:36.828Z,1.00
2018-03-18T12:15:04.562Z,1.00
2018-03-18T12:17:32.928Z,0.80
2018-03-18T12:20:00.756Z,1.00
2018-03-18T12:22:28.899Z,1.10
2018-03-18T12:24:58.267Z,0.90
2018-03-18T12:27:25.935Z,0.90
2018-03-18T12:29:54.051Z,1.10
2018-03-18T12:32:21.859Z,1.10
2018-03-18T12:34:51.176Z,1.20
2018-03-18T12:37:18.912Z,1.20
2018-03-18T12:39:58.241Z,1.20
2018-03-18T12:42:37.597Z,1.10
2018-03-18T12:45:06.309Z,1.50
2018-03-18T12:47:34.855Z,1.80
2018-03-18T12:50:02.548Z,1.80
2018-03-18T12:52:30.938Z,1.70
2018-03-18T12:54:59.313Z,1.90
2018-03-18T12:57:27.717Z,1.90
2018-03-18T12:59:55.323Z,1.90
2018-03-18T13:02:24.092Z,2.20
2018-03-18T13:04:51.739Z,2.30
2018-03-18T13:07:19.407Z,2.30
2018-03-18T13:09:47.618Z,2.30
2018-03-18T13:12:15.245Z,2.60
2018-03-18T13:14:42.912Z,2.40
2018-03-18T13:17:10.565Z,2.40
2018-03-18T13:19:39.110Z,2.30
2018-03-18T13:22:06.808Z,2.30
2018-03-18T13:24:34.467Z,2.30
2018-03-18T13:27:02.992Z,2.40
2018-03-18T13:29:33.833Z,2.20
2018-03-18T13:32:06.912Z,2.10
2018-03-18T13:34:34.651Z,2.10
2018-03-18T13:37:03.410Z,2.20
2018-03-18T13:39:31.294Z,2.10
2018-03-18T13:41:59.006Z,1.90
2018-03-18T13:44:27.448Z,1.70
2018-03-18T13:46:55.943Z,1.80
2018-03-18T13:49:25.357Z,1.70
2018-03-18T13:51:53.133Z,1.80
2018-03-18T13:54:20.834Z,1.80
2018-03-18T13:56:49.244Z,1.70
2018-03-18T13:59:18.420Z,1.70
2018-03-18T14:01:47.083Z,1.60
2018-03-18T14:04:15.547Z,1.50
2018-03-18T14:06:43.192Z,1.50
2018-03-18T14:09:10.906Z,1.50
2018-03-18T14:11:39.354Z,1.60
2018-03-18T14:14:06.989Z,1.60
2018-03-18T14:16:34.629Z,1.60
2018-03-18T14:19:03.072Z,2.00
2018-03-18T14:21:30.782Z,2.00
2018-03-18T14:23:58.798Z,1.90
2018-03-18T14:26:26.477Z,1.90
2018-03-18T14:28:54.159Z,2.00
2018-03-18T14:31:22.669Z,1.80
2018-03-18T14:33:50.219Z,1.80
2018-03-18T14:36:17.816Z,1.80
2018-03-18T14:38:46.179Z,1.70
2018-03-18T14:41:14.575Z,1.80
2018-03-18T14:43:42.951Z,1.80
2018-03-18T14:46:10.598Z,1.80
2018-03-18T14:48:38.355Z,1.90
2018-03-18T14:51:05.953Z,2.00
2018-03-18T14:53:33.614Z,1.90
2018-03-18T14:56:01.244Z,1.80
2018-03-18T14:58:28.959Z,1.80
2018-03-18T15:00:56.582Z,1.80
2018-03-18T15:03:24.187Z,1.70
2018-03-18T15:05:52.597Z,2.00
2018-03-18T15:08:20.207Z,2.00
2018-03-18T15:10:47.863Z,2.00
2018-03-18T15:13:15.457Z,2.10
2018-03-18T15:15:43.151Z,2.00
2018-03-18T15:18:10.761Z,1.90
2018-03-18T15:20:38.443Z,1.90
2018-03-18T15:23:06.069Z,1.80
2018-03-18T15:25:33.691Z,1.70
2018-03-18T15:28:02.113Z,1.70
2018-03-18T15:30:30.561Z,1.60
2018-03-18T15:32:59.000Z,1.70
2018-03-18T15:35:26.689Z,1.70
2018-03-18T15:40:30.198Z,1.60
2018-03-18T15:42:57.814Z,1.70
2018-03-18T15:45:25.386Z,1.60
2018-03-18T15:47:54.085Z,1.60
2018-03-18T15:50:24.752Z,1.70
2018-03-18T15:52:52.622Z,1.80
2018-03-18T15:55:20.442Z,1.70
2018-03-18T15:57:48.117Z,1.70
2018-03-18T16:00:15.795Z,1.60
2018-03-18T16:02:44.406Z,1.50
2018-03-18T16:05:12.014Z,1.50
2018-03-18T16:07:40.632Z,1.50
2018-03-18T16:10:08.297Z,1.30
2018-03-18T16:12:35.962Z,1.40
2018-03-18T16:15:03.599Z,1.30
2018-03-18T16:17:32.015Z,1.30
2018-03-18T16:19:59.670Z,1.30
2018-03-18T16:22:28.089Z,1.30
2018-03-18T16:24:55.688Z,1.30
2018-03-18T16:27:23.359Z,1.30
2018-03-18T16:30:02.897Z,1.20
2018-03-18T16:32:31.436Z,1.10
2018-03-18T16:34:59.078Z,1.10
2018-03-18T16:37:27.492Z,1.00
2018-03-18T16:39:55.146Z,1.00
2018-03-18T16:42:22.817Z,1.00
2018-03-18T16:44:50.511Z,0.90
2018-03-18T16:47:18.202Z,1.00
2018-03-18T16:49:45.872Z,0.90
2018-03-18T16:52:14.251Z,0.90
2018-03-18T16:54:41.878Z,0.90
2018-03-18T16:57:09.495Z,0.90
2018-03-18T16:59:37.931Z,0.90
2018-03-18T17:02:05.873Z,0.80
2018-03-18T17:04:33.668Z,0.80
2018-03-18T17:07:01.424Z,0.80
2018-03-18T17:09:29.062Z,0.80
2018-03-18T17:11:56.704Z,0.70
2018-03-18T17:14:24.344Z,0.70
2018-03-18T17:16:51.989Z,0.60
2018-03-18T17:19:19.582Z,0.60
2018-03-18T17:21:47.212Z,0.60
2018-03-18T17:24:15.606Z,0.50
2018-03-18T17:26:44.053Z,0.40
2018-03-18T17:29:12.461Z,0.40
2018-03-18T17:31:40.077Z,0.40
2018-03-18T17:34:07.737Z,0.30
2018-03-18T17:36:35.433Z,0.30
2018-03-18T17:39:03.140Z,0.30
2018-03-18T17:41:31.502Z,0.20
2018-03-18T17:43:59.176Z,0.20
2018-03-18T17:46:38.646Z,0.10
2018-03-18T17:49:18.068Z,0.10
2018-03-18T17:51:57.576Z,0.10
2018-03-18T17:54:37.002Z,0.10
2018-03-18T17:57:04.615Z,0.00
2018-03-18T17:59:33.126Z,0.10
2018-03-18T18:02:00.780Z,0.00
2018-03-18T18:04:28.486Z,0.10
2018-03-18T18:06:56.973Z,0.00
2018-03-18T18:09:25.362Z,0.00
2018-03-18T18:11:53.063Z,0.00
2018-03-18T18:14:20.848Z,0.00
2018-03-18T18:16:48.485Z,0.00
2018-03-18T18:19:16.238Z,0.00
2018-03-18T18:21:43.929Z,0.00
2018-03-18T18:24:11.581Z,0.00
2018-03-18T18:26:39.996Z,0.00
2018-03-18T18:29:07.624Z,0.00
2018-03-18T18:31:36.018Z,0.00
2018-03-18T18:34:03.664Z,0.00
2018-03-18T18:36:31.300Z,0.10
2018-03-18T18:38:58.952Z,0.00
2018-03-18T18:41:26.621Z,0.00
2018-03-18T18:43:54.289Z,0.00
2018-03-18T18:46:21.938Z,-0.10
2018-03-18T18:48:49.644Z,-0.10
2018-03-18T18:51:17.268Z,-0.10
2018-03-18T18:53:44.967Z,-0.10
2018-03-18T18:56:12.666Z,-0.10
2018-03-18T18:58:40.487Z,-0.20
2018-03-18T19:01:08.147Z,-0.20
2018-03-18T19:03:35.796Z,-0.20
2018-03-18T19:06:04.848Z,-0.20
2018-03-18T19:08:32.626Z,-0.20
2018-03-18T19:11:00.378Z,-0.20
2018-03-18T19:13:27.972Z,-0.20
2018-03-18T19:15:55.636Z,-0.30
2018-03-18T19:18:24.904Z,-0.20
2018-03-18T19:20:52.549Z,-0.20
2018-03-18T19:23:20.176Z,-0.20
2018-03-18T19:25:48.618Z,-0.30
2018-03-18T19:28:16.246Z,-0.30
2018-03-18T19:30:44.606Z,-0.30
2018-03-18T19:33:13.214Z,-0.40
2018-03-18T19:35:41.637Z,-0.30
2018-03-18T19:38:09.351Z,-0.30
2018-03-18T19:40:37.096Z,-0.30
2018-03-18T19:43:04.795Z,-0.30
2018-03-18T19:45:33.257Z,-0.40
2018-03-18T19:48:00.888Z,-0.40
2018-03-18T19:50:28.610Z,-0.40
2018-03-18T19:52:57.037Z,-0.30
2018-03-18T19:55:24.826Z,-0.30
2018-03-18T19:57:52.484Z,-0.40
2018-03-18T20:00:20.094Z,-0.40
2018-03-18T20:02:48.532Z,-0.40
2018-03-18T20:05:17.877Z,-0.40
2018-03-18T20:07:46.273Z,-0.40
2018-03-18T20:10:14.628Z,-0.40
2018-03-18T20:12:42.354Z,-0.40
2018-03-18T20:15:09.969Z,-0.40
2018-03-18T20:17:37.564Z,-0.40
2018-03-18T20:20:05.977Z,-0.30
2018-03-18T20:22:33.660Z,-0.40
2018-03-18T20:25:01.291Z,-0.40
2018-03-18T20:27:28.927Z,-0.40
2018-03-18T20:29:56.551Z,-0.40
2018-03-18T20:32:24.206Z,-0.40
2018-03-18T20:34:51.922Z,-0.40
2018-03-18T20:37:19.744Z,-0.40
2018-03-18T20:39:47.395Z,-0.40
2018-03-18T20:42:14.987Z,-0.40
2018-03-18T20:44:42.562Z,-0.40
2018-03-18T20:47:10.200Z,-0.40
2018-03-18T20:49:37.862Z,-0.40
2018-03-18T20:52:05.456Z,-0.40
2018-03-18T20:54:33.085Z,-0.40
2018-03-18T20:57:01.120Z,-0.40
2018-03-18T20:59:28.757Z,-0.40
2018-03-18T21:01:56.365Z,-0.40
2018-03-18T21:04:23.985Z,-0.40
2018-03-18T21:06:51.600Z,-0.40
2018-03-18T21:09:19.969Z,-0.40
2018-03-18T21:11:48.310Z,-0.40
2018-03-18T21:14:15.903Z,-0.40
2018-03-18T21:16:43.509Z,-0.50
2018-03-18T21:19:11.870Z,-0.50
2018-03-18T21:21:39.456Z,-0.50
2018-03-18T21:24:07.848Z,-0.60
2018-03-18T21:26:36.246Z,-0.50
2018-03-18T21:29:04.616Z,-0.60
2018-03-18T21:31:32.216Z,-0.60
2018-03-18T21:33:59.812Z,-0.60
2018-03-18T21:36:27.428Z,-0.60
2018-03-18T21:38:55.068Z,-0.60
2018-03-18T21:41:23.401Z,-0.70
2018-03-18T21:43:51.012Z,-0.70
2018-03-18T21:46:18.628Z,-0.70
2018-03-18T21:48:46.236Z,-0.70
2018-03-18T21:51:13.897Z,-0.70
2018-03-18T21:53:41.505Z,-0.70
2018-03-18T21:56:09.964Z,-0.70
2018-03-18T21:58:38.319Z,-0.60
2018-03-18T22:01:05.965Z,-0.70
2018-03-18T22:03:33.566Z,-0.70
2018-03-18T22:06:01.145Z,-0.70
2018-03-18T22:08:29.628Z,-0.80
2018-03-18T22:10:57.243Z,-0.80
2018-03-18T22:13:24.865Z,-0.80
2018-03-18T22:15:53.230Z,-0.80
2018-03-18T22:18:20.834Z,-0.80
2018-03-18T22:20:48.465Z,-0.80
2018-03-18T22:23:16.068Z,-0.80
2018-03-18T22:25:43.668Z,-0.80
2018-03-18T22:28:11.283Z,-0.80
2018-03-18T22:30:38.873Z,-0.80
2018-03-18T22:33:06.492Z,-0.80
2018-03-18T22:35:34.857Z,-0.90
2018-03-18T22:38:02.466Z,-0.90
2018-03-18T22:40:30.050Z,-0.90
2018-03-18T22:42:57.653Z,-0.90
2018-03-18T22:45:26.105Z,-0.90
2018-03-18T22:47:53.706Z,-0.90
2018-03-18T22:50:21.316Z,-1.00
2018-03-18T22:52:48.916Z,-1.00
2018-03-18T22:55:16.485Z,-1.00
2018-03-18T22:57:44.092Z,-1.00
2018-03-18T23:00:12.475Z,-1.10
2018-03-18T23:02:40.817Z,-1.00
2018-03-18T23:05:08.460Z,-1.10
2018-03-18T23:07:36.048Z,-1.10
2018-03-18T23:10:03.653Z,-1.10
2018-03-18T23:12:32.009Z,-1.10
2018-03-18T23:14:59.619Z,-1.10
2018-03-18T23:17:27.226Z,-1.10
2018-03-18T23:19:54.823Z,-1.10
2018-03-18T23:22:23.193Z,-1.10
2018-03-18T23:24:50.817Z,-1.10
2018-03-18T23:27:18.396Z,-1.10
2018-03-18T23:29:45.981Z,-1.10
2018-03-18T23:32:13.566Z,-1.10
2018-03-18T23:34:41.928Z,-1.10
2018-03-18T23:37:09.503Z,-1.20
2018-03-18T23:39:37.104Z,-1.20
2018-03-18T23:42:04.688Z,-1.20
2018-03-18T23:44:32.275Z,-1.20
2018-03-18T23:46:59.840Z,-1.20
2018-03-18T23:49:27.439Z,-1.20
2018-03-18T23:51:55.020Z,-1.20
2018-03-18T23:54:23.356Z,-1.30
2018-03-18T23:56:50.971Z,-1.30
2018-03-18T23:59:19.327Z,-1.30
